Ana Sayfa
METAR-TAF:

METAR-TAF

Havaalanları :

Kruger Mpumalanga International Airport

Kruger National Park, Güney Afrika

Enlem: 25-23-00S, Boylam: 31-06-20E, yükseklik: 862 m

Güncel hava durumu gözlemi

Rapor saat 00:00 UTC de 32 dakika önce yapıldı.
Rüzgar doğudan 4 kt
Sıcaklık 19°C
Nem 94%
Basınç 1019 hPa

METAR: FAKN 280000Z AUTO 08004KT //// // ////// 19/18 Q1019

Saat: 02:32 (00:32 UTC)

Tahmin

Rapor saat 09:00 UTC de 15 saat ve 32 dakika önce yapıldı.
Ayın 27'si saat 10 UTC'den ayın 27'si saat 18 UTC'ye kadar geçerli Tahmin
Rüzgar değişken yönden 3 kt
Görüş mesafesi 10 km veya daha fazla
1500 m altında bulut yok ve kümülonimbus yok
Dönüşüyor
ayın 27'si saat 11 UTC'den ayın 27'si saat 13 UTC'ye kadar
Rüzgar doğu/kuzeydoğudan 8 kt

TAF: FAKN 270900Z 2710/2718 VRB03KT CAVOK TX30/2713Z TN24/2718Z BECMG 2711/2713 06008KT

4.000'den fazla havaalanı için hava durumu gözlemleri ve tahminleri (METAR ve TAF raporları).

Kullanılabilir istasyonlar harita üzerinde sarı ve kırmızı noktalarla gösterilir.

İstasyonun adını görmek için fareyi noktanın üzerinde gezdirin.

Sonrasında hava gözlem ve tahminlerini görmek için tıklayın.

Haritayı değiştirmek için: yaklaştırmak için siyah artı işaretli yeşil düğmeye ve uzaklaştırmak için de eksi işaretli düğmeye hızla tıklayın; bitişik haritalar için yeşil okları kullanın.


METAR-TAF: